Genoa Express — VRLX5 — position and weather

sailwx.info

Track history (hours):
 
Tides and Currents Weather Stations Pressure Air Temp Water Temp Dewpoint Dewpoint Depression Visibility Wind Speed Wind Dir Waves Ship Positions

Genoa Express

Last reported at 2018-Apr-20 01:15 UTC. Time now 2018-Apr-23 03:55 UTC.
Position N 45°34' W 073°31'.

Length 228 m; draft 10.7 m.

Type: Ship (hazmat cat A). MMSI: 477694200.

Date/timePositionNaut miles runAvg speedWind from/ knotsBaromVisibWave heightAir tempDewpointWater temp
2018-Apr-20 01:15N 45°34' W 073°31'2 5.9
2018-Apr-20 00:50N 45°37' W 073°30'4 7.0
2018-Apr-20 00:17N 45°40' W 073°28'2 8.5
2018-Apr-20 00:00N 45°42' W 073°26'21 9.2
2018-Apr-19 21:43N 46°00' W 073°11'2 9.8
2018-Apr-19 21:30N 46°02' W 073°10'4 8.7
2018-Apr-19 21:00N 46°04' W 073°04'5 9.5
2018-Apr-19 20:29N 46°07' W 072°58'8410.7
2018-Apr-19 12:35N 46°49' W 071°12'1 9.0
2018-Apr-19 12:30N 46°49' W 071°12'  
Track history (hours):
 
Tides and Currents Weather Stations Pressure Air Temp Water Temp Dewpoint Dewpoint Depression Visibility Wind Speed Wind Dir Waves Ship Positions

Genoa Express

Last reported at 2018-Apr-20 01:15 UTC. Time now 2018-Apr-23 03:55 UTC.
Position N 45°34' W 073°31'.

Length 228 m; draft 10.7 m.

Type: Ship (hazmat cat A). MMSI: 477694200.

Date/timePositionNaut miles runAvg speedWind from/ knotsBaromVisibWave heightAir tempDewpointWater temp
2018-Apr-20 01:15N 45°34' W 073°31'2 5.9
2018-Apr-20 00:50N 45°37' W 073°30'4 7.0
2018-Apr-20 00:17N 45°40' W 073°28'2 8.5
2018-Apr-20 00:00N 45°42' W 073°26'21 9.2
2018-Apr-19 21:43N 46°00' W 073°11'2 9.8
2018-Apr-19 21:30N 46°02' W 073°10'4 8.7
2018-Apr-19 21:00N 46°04' W 073°04'5 9.5
2018-Apr-19 20:29N 46°07' W 072°58'8410.7
2018-Apr-19 12:35N 46°49' W 071°12'1 9.0
2018-Apr-19 12:30N 46°49' W 071°12'  

Dump ship's entire track history